createdAt,value
2023-12-19T00:00:45.878Z,99244.25
2023-12-19T00:03:13.039Z,99238.09
2023-12-19T00:05:43.364Z,99232.78
2023-12-19T00:08:10.483Z,99241.53
2023-12-19T00:10:37.223Z,99234.53
2023-12-19T00:13:04.194Z,99242.31
2023-12-19T00:15:31.011Z,99245.78
2023-12-19T00:17:57.959Z,99238.00
2023-12-19T00:20:24.660Z,99236.19
2023-12-19T00:22:51.256Z,99227.47
2023-12-19T00:25:18.239Z,99227.47
2023-12-19T00:27:44.950Z,99223.03
2023-12-19T00:30:12.177Z,99208.22
2023-12-19T00:32:38.788Z,99194.25
2023-12-19T00:35:06.188Z,99219.38
2023-12-19T00:37:33.031Z,99202.88
2023-12-19T00:39:59.701Z,99200.44
2023-12-19T00:42:26.694Z,99207.28
2023-12-19T00:44:53.507Z,99213.22
2023-12-19T00:47:20.331Z,99225.34
2023-12-19T00:49:47.159Z,99226.25
2023-12-19T00:52:14.030Z,99224.38
2023-12-19T00:54:40.830Z,99232.88
2023-12-19T00:57:07.477Z,99231.91
2023-12-19T00:59:34.063Z,99213.63
2023-12-19T01:02:01.108Z,99228.44
2023-12-19T01:04:27.772Z,99224.84
2023-12-19T01:06:54.618Z,99232.53
2023-12-19T01:12:12.295Z,99238.75
2023-12-19T01:14:38.763Z,99247.44
2023-12-19T01:17:05.489Z,99250.66
2023-12-19T01:19:32.222Z,99264.88
2023-12-19T01:21:59.757Z,99264.13
2023-12-19T01:24:26.500Z,99268.44
2023-12-19T01:26:53.007Z,99261.38
2023-12-19T01:29:20.230Z,99266.53
2023-12-19T01:31:46.874Z,99271.88
2023-12-19T01:34:13.928Z,99263.28
2023-12-19T01:36:56.361Z,99258.06
2023-12-19T01:39:24.544Z,99266.72
2023-12-19T01:41:53.387Z,99259.72
2023-12-19T01:44:20.836Z,99267.53
2023-12-19T01:46:48.072Z,99270.09
2023-12-19T01:49:15.861Z,99274.44
2023-12-19T01:51:43.184Z,99262.13
2023-12-19T01:54:11.781Z,99266.38
2023-12-19T01:56:39.374Z,99262.91
2023-12-19T01:59:09.468Z,99250.53
2023-12-19T02:01:36.982Z,99240.88
2023-12-19T02:04:04.506Z,99240.81
2023-12-19T02:06:35.056Z,99235.50
2023-12-19T02:09:02.383Z,99244.09
2023-12-19T02:11:30.095Z,99230.16
2023-12-19T02:13:59.735Z,99216.44
2023-12-19T02:16:27.997Z,99212.16
2023-12-19T02:19:05.309Z,99222.53
2023-12-19T02:21:32.624Z,99223.63
2023-12-19T02:23:59.942Z,99229.78
2023-12-19T02:26:28.521Z,99229.81
2023-12-19T02:28:55.111Z,99219.38
2023-12-19T02:31:22.167Z,99220.25
2023-12-19T02:33:49.337Z,99209.09
2023-12-19T02:36:17.591Z,99196.25
2023-12-19T02:38:44.577Z,99210.13
2023-12-19T02:41:11.848Z,99213.56
2023-12-19T02:43:53.166Z,99208.47
2023-12-19T02:46:21.972Z,99216.22
2023-12-19T02:48:48.815Z,99220.63
2023-12-19T02:51:15.606Z,99228.47
2023-12-19T02:53:42.158Z,99218.91
2023-12-19T02:56:08.765Z,99198.75
2023-12-19T02:58:35.401Z,99201.25
2023-12-19T03:01:02.233Z,99202.09
2023-12-19T03:03:30.983Z,99193.38
2023-12-19T03:05:57.818Z,99176.00
2023-12-19T03:08:24.802Z,99173.38
2023-12-19T03:10:51.446Z,99173.38
2023-12-19T03:13:17.954Z,99179.38
2023-12-19T03:15:44.660Z,99157.66
2023-12-19T03:18:11.539Z,99155.84
2023-12-19T03:20:38.204Z,99174.88
2023-12-19T03:23:04.797Z,99162.78
2023-12-19T03:25:31.363Z,99161.00
2023-12-19T03:27:58.001Z,99180.91
2023-12-19T03:30:24.912Z,99185.16
2023-12-19T03:32:51.657Z,99170.31
2023-12-19T03:35:18.271Z,99188.53
2023-12-19T03:37:45.102Z,99192.72
2023-12-19T03:40:12.030Z,99196.13
2023-12-19T03:42:40.124Z,99176.19
2023-12-19T03:45:07.525Z,99170.94
2023-12-19T03:47:34.105Z,99153.53
2023-12-19T03:50:00.814Z,99151.03
2023-12-19T03:52:28.150Z,99140.50
2023-12-19T03:54:54.895Z,99147.44
2023-12-19T03:57:21.632Z,99155.13
2023-12-19T03:59:48.827Z,99146.19
2023-12-19T04:02:15.443Z,99147.00
2023-12-19T04:04:42.287Z,99132.16
2023-12-19T04:07:09.472Z,99122.72
2023-12-19T04:09:36.308Z,99111.34
2023-12-19T04:12:03.560Z,99106.94
2023-12-19T04:14:34.245Z,99096.53
2023-12-19T04:17:01.110Z,99092.06
2023-12-19T04:19:27.942Z,99090.44
2023-12-19T04:21:55.404Z,99081.22
2023-12-19T04:24:22.388Z,99079.81
2023-12-19T04:26:49.160Z,99070.50
2023-12-19T04:29:16.197Z,99068.06
2023-12-19T04:31:43.239Z,99068.25
2023-12-19T04:34:10.068Z,99077.97
2023-12-19T04:36:36.897Z,99106.59
2023-12-19T04:39:03.737Z,99107.47
2023-12-19T04:41:30.526Z,99099.63
2023-12-19T04:43:57.932Z,99090.94
2023-12-19T04:46:24.509Z,99089.22
2023-12-19T04:48:51.320Z,99083.09
2023-12-19T04:51:23.477Z,99050.09
2023-12-19T04:53:50.797Z,99037.19
2023-12-19T04:56:19.993Z,99061.31
2023-12-19T04:58:49.907Z,99074.28
2023-12-19T05:01:17.979Z,99087.25
2023-12-19T05:03:45.072Z,99101.97
2023-12-19T05:06:18.559Z,99106.41
2023-12-19T05:08:46.460Z,99113.31
2023-12-19T05:11:13.406Z,99101.97
2023-12-19T05:13:40.068Z,99104.50
2023-12-19T05:16:16.812Z,99108.72
2023-12-19T05:18:44.879Z,99101.69
2023-12-19T05:21:12.702Z,99106.81
2023-12-19T05:23:40.495Z,99105.91
2023-12-19T05:26:10.205Z,99104.09
2023-12-19T05:28:39.519Z,99102.28
2023-12-19T05:31:06.334Z,99110.06
2023-12-19T05:33:35.578Z,99114.41
2023-12-19T05:36:03.197Z,99108.34
2023-12-19T05:38:32.641Z,99103.22
2023-12-19T05:40:59.328Z,99103.13
2023-12-19T05:43:26.147Z,99097.06
2023-12-19T05:45:53.587Z,99074.06
2023-12-19T05:48:22.394Z,99073.34
2023-12-19T05:50:49.893Z,99075.13
2023-12-19T05:53:17.026Z,99075.25
2023-12-19T05:55:44.914Z,99070.94
2023-12-19T05:58:11.806Z,99077.88
2023-12-19T06:00:38.772Z,99075.28
2023-12-19T06:03:05.650Z,99088.38
2023-12-19T06:05:32.431Z,99094.53
2023-12-19T06:08:02.224Z,99084.19
2023-12-19T06:10:29.097Z,99083.38
2023-12-19T06:12:55.970Z,99094.69
2023-12-19T06:15:23.049Z,99082.56
2023-12-19T06:17:50.694Z,99089.44
2023-12-19T06:20:17.548Z,99078.19
2023-12-19T06:22:44.511Z,99081.66
2023-12-19T06:25:11.818Z,99078.19
2023-12-19T06:27:38.533Z,99072.97
2023-12-19T06:30:14.758Z,99075.59
2023-12-19T06:32:49.739Z,99081.66
2023-12-19T06:35:16.471Z,99087.78
2023-12-19T06:37:43.217Z,99073.97
2023-12-19T06:40:11.288Z,99079.97
2023-12-19T06:42:37.992Z,99078.22
2023-12-19T06:45:05.059Z,99070.44
2023-12-19T06:47:31.788Z,99072.19
2023-12-19T06:49:58.495Z,99074.03
2023-12-19T06:52:25.281Z,99059.22
2023-12-19T06:54:52.167Z,99062.69
2023-12-19T06:57:18.805Z,99042.78
2023-12-19T06:59:45.474Z,99039.34
2023-12-19T07:02:12.334Z,99024.66
2023-12-19T07:04:39.030Z,99007.28
2023-12-19T07:07:05.758Z,99009.03
2023-12-19T07:09:32.474Z,98991.69
2023-12-19T07:11:59.099Z,98984.78
2023-12-19T07:14:26.027Z,98984.81
2023-12-19T07:16:52.553Z,98989.16
2023-12-19T07:19:19.111Z,98980.50
2023-12-19T07:21:46.313Z,98982.28
2023-12-19T07:24:12.909Z,98965.75
2023-12-19T07:26:39.786Z,98971.00
2023-12-19T07:32:03.178Z,98956.25
2023-12-19T07:34:29.824Z,98953.63
2023-12-19T07:36:56.489Z,98944.91
2023-12-19T07:39:23.138Z,98947.50
2023-12-19T07:41:49.818Z,98944.03
2023-12-19T07:47:08.608Z,98921.47
2023-12-19T07:49:35.407Z,98924.06
2023-12-19T07:52:02.209Z,98921.44
2023-12-19T07:54:28.992Z,98926.69
2023-12-19T07:56:55.613Z,98916.28
2023-12-19T07:59:22.774Z,98912.78
2023-12-19T08:01:52.448Z,98918.00
2023-12-19T08:04:19.252Z,98928.41
2023-12-19T08:06:46.195Z,98921.47
2023-12-19T08:09:15.535Z,98941.44
2023-12-19T08:11:42.270Z,98941.44
2023-12-19T08:14:09.056Z,98930.19
2023-12-19T08:16:35.670Z,98928.47
2023-12-19T08:19:02.460Z,98939.78
2023-12-19T08:21:29.248Z,98947.56
2023-12-19T08:23:55.984Z,98947.59
2023-12-19T08:26:22.617Z,98945.91
2023-12-19T08:28:49.734Z,98936.34
2023-12-19T08:31:16.453Z,98944.16
2023-12-19T08:33:45.417Z,98945.03
2023-12-19T08:36:32.594Z,98931.16
2023-12-19T08:39:00.318Z,98940.69
2023-12-19T08:41:30.544Z,98940.72
2023-12-19T08:43:57.222Z,98938.13
2023-12-19T08:46:25.753Z,98935.50
2023-12-19T08:48:52.602Z,98925.06
2023-12-19T08:51:19.492Z,98913.75
2023-12-19T08:53:46.198Z,98904.16
2023-12-19T08:56:12.826Z,98902.41
2023-12-19T08:58:39.449Z,98901.53
2023-12-19T09:01:06.409Z,98891.09
2023-12-19T09:03:33.370Z,98877.16
2023-12-19T09:06:00.296Z,98867.59
2023-12-19T09:08:26.954Z,98870.22
2023-12-19T09:10:53.564Z,98871.09
2023-12-19T09:13:23.296Z,98880.66
2023-12-19T09:15:50.161Z,98885.03
2023-12-19T09:18:19.002Z,98891.97
2023-12-19T09:20:45.694Z,98884.13
2023-12-19T09:23:12.298Z,98888.50
2023-12-19T09:25:38.907Z,98878.91
2023-12-19T09:28:05.941Z,98883.25
2023-12-19T09:30:32.790Z,98877.13
2023-12-19T09:32:59.502Z,98868.47
2023-12-19T09:35:26.521Z,98864.06
2023-12-19T09:37:53.270Z,98859.72
2023-12-19T09:40:28.611Z,98869.28
2023-12-19T09:42:55.303Z,98861.41
2023-12-19T09:45:21.950Z,98858.78
2023-12-19T09:48:00.354Z,98857.00
2023-12-19T09:50:30.973Z,98853.50
2023-12-19T09:53:01.117Z,98839.56
2023-12-19T09:55:32.323Z,98848.25
2023-12-19T09:58:00.758Z,98837.81
2023-12-19T10:00:28.083Z,98839.56
2023-12-19T10:02:56.077Z,98841.31
2023-12-19T10:05:22.790Z,98825.72
2023-12-19T10:07:49.724Z,98829.16
2023-12-19T10:10:16.496Z,98828.25
2023-12-19T10:12:57.242Z,98813.50
2023-12-19T10:15:27.220Z,98816.09
2023-12-19T10:18:13.213Z,98803.88
2023-12-19T10:20:40.241Z,98785.56
2023-12-19T10:23:08.147Z,98782.97
2023-12-19T10:25:43.143Z,98772.50
2023-12-19T10:28:14.243Z,98762.88
2023-12-19T10:30:41.414Z,98766.34
2023-12-19T10:33:08.736Z,98758.44
2023-12-19T10:35:39.866Z,98747.06
2023-12-19T10:38:10.214Z,98762.69
2023-12-19T10:40:38.288Z,98747.88
2023-12-19T10:43:05.649Z,98749.56
2023-12-19T10:45:33.061Z,98733.88
2023-12-19T10:48:00.452Z,98714.53
2023-12-19T10:50:29.373Z,98711.75
2023-12-19T10:53:04.701Z,98698.50
2023-12-19T10:55:42.698Z,98699.16
2023-12-19T10:58:14.015Z,98691.22
2023-12-19T11:00:43.396Z,98686.66
2023-12-19T11:03:21.167Z,98688.38
2023-12-19T11:05:50.022Z,98681.22
2023-12-19T11:08:19.241Z,98671.50
2023-12-19T11:10:54.311Z,98677.56
2023-12-19T11:13:22.003Z,98665.13
2023-12-19T11:15:58.025Z,98667.63
2023-12-19T11:18:49.563Z,98652.75
2023-12-19T11:21:24.421Z,98641.41
2023-12-19T11:23:53.745Z,98652.69
2023-12-19T11:26:46.515Z,98641.22
2023-12-19T11:29:47.206Z,98639.56
2023-12-19T11:32:29.269Z,98643.75
2023-12-19T11:35:09.350Z,98633.34
2023-12-19T11:37:36.966Z,98624.75
2023-12-19T11:40:07.681Z,98627.44
2023-12-19T11:42:40.623Z,98630.03
2023-12-19T11:45:19.632Z,98634.25
2023-12-19T11:47:49.627Z,98629.84
2023-12-19T11:50:41.847Z,98633.56
2023-12-19T11:53:08.906Z,98626.66
2023-12-19T11:55:36.203Z,98622.19
2023-12-19T11:58:13.502Z,98623.28
2023-12-19T12:00:43.565Z,98623.31
2023-12-19T12:03:13.797Z,98628.69
2023-12-19T12:05:41.128Z,98624.34
2023-12-19T12:08:14.148Z,98628.66
2023-12-19T12:10:41.051Z,98629.81
2023-12-19T12:13:08.012Z,98625.38
2023-12-19T12:15:34.865Z,98604.50
2023-12-19T12:18:08.595Z,98602.81
2023-12-19T12:20:36.564Z,98597.47
2023-12-19T12:23:04.449Z,98593.09
2023-12-19T12:25:35.246Z,98598.34
2023-12-19T12:28:11.773Z,98597.47
2023-12-19T12:30:41.786Z,98592.34
2023-12-19T12:33:09.344Z,98588.69
2023-12-19T12:35:37.732Z,98582.56
2023-12-19T12:38:12.659Z,98580.97
2023-12-19T12:40:39.549Z,98580.91
2023-12-19T12:43:41.771Z,98576.50
2023-12-19T12:46:15.689Z,98569.44
2023-12-19T12:48:43.412Z,98561.47
2023-12-19T12:51:10.766Z,98557.00
2023-12-19T12:53:38.152Z,98557.03
2023-12-19T12:56:05.732Z,98552.66
2023-12-19T12:58:33.766Z,98539.59
2023-12-19T13:01:00.795Z,98548.28
2023-12-19T13:03:31.078Z,98525.50
2023-12-19T13:06:01.681Z,98525.59
2023-12-19T13:08:30.062Z,98522.13
2023-12-19T13:10:58.510Z,98515.03
2023-12-19T13:13:25.922Z,98510.16
2023-12-19T13:15:54.270Z,98515.41
2023-12-19T13:18:24.229Z,98513.63
2023-12-19T13:20:53.117Z,98512.03
2023-12-19T13:23:21.182Z,98504.09
2023-12-19T13:25:50.103Z,98508.56
2023-12-19T13:28:17.466Z,98491.22
2023-12-19T13:30:44.540Z,98498.25
2023-12-19T13:33:11.478Z,98500.97
2023-12-19T13:35:38.771Z,98496.63
2023-12-19T13:38:05.786Z,98486.16
2023-12-19T13:40:33.231Z,98480.16
2023-12-19T13:43:02.394Z,98489.66
2023-12-19T13:45:30.182Z,98498.56
2023-12-19T13:47:57.382Z,98495.16
2023-12-19T13:50:23.930Z,98474.38
2023-12-19T13:52:50.963Z,98478.00
2023-12-19T13:55:17.976Z,98486.72
2023-12-19T13:57:45.249Z,98469.22
2023-12-19T14:00:22.718Z,98479.81
2023-12-19T14:02:56.357Z,98478.97
2023-12-19T14:05:23.105Z,98486.94
2023-12-19T14:07:50.375Z,98477.31
2023-12-19T14:10:17.410Z,98478.31
2023-12-19T14:12:47.503Z,98480.13
2023-12-19T14:15:17.669Z,98489.75
2023-12-19T14:17:45.149Z,98492.44
2023-12-19T14:20:16.786Z,98482.84
2023-12-19T14:22:43.838Z,98482.94
2023-12-19T14:25:12.748Z,98485.56
2023-12-19T14:27:39.969Z,98483.84
2023-12-19T14:30:10.371Z,98480.41
2023-12-19T14:32:39.221Z,98476.00
2023-12-19T14:35:07.383Z,98470.88
2023-12-19T14:37:35.024Z,98465.47
2023-12-19T14:40:02.827Z,98468.13
2023-12-19T14:42:31.677Z,98465.56
2023-12-19T14:44:59.788Z,98468.06
2023-12-19T14:47:26.918Z,98465.53
2023-12-19T14:49:54.033Z,98457.59
2023-12-19T14:52:21.046Z,98455.81
2023-12-19T14:54:48.135Z,98452.34
2023-12-19T14:57:14.953Z,98441.78
2023-12-19T14:59:42.010Z,98435.78
2023-12-19T15:02:08.802Z,98436.56
2023-12-19T15:04:36.576Z,98425.19
2023-12-19T15:07:04.663Z,98426.03
2023-12-19T15:09:31.760Z,98424.38
2023-12-19T15:12:00.098Z,98426.97
2023-12-19T15:14:27.447Z,98434.88
2023-12-19T15:16:54.990Z,98434.13
2023-12-19T15:19:21.902Z,98435.09
2023-12-19T15:21:49.150Z,98424.56
2023-12-19T15:24:15.973Z,98428.06
2023-12-19T15:26:43.803Z,98427.19
2023-12-19T15:29:14.226Z,98421.09
2023-12-19T15:31:45.604Z,98417.59
2023-12-19T15:34:13.112Z,98428.13
2023-12-19T15:36:40.359Z,98430.78
2023-12-19T15:39:08.065Z,98420.31
2023-12-19T15:41:35.372Z,98415.09
2023-12-19T15:44:08.571Z,98408.25
2023-12-19T15:46:41.147Z,98403.91
2023-12-19T15:49:10.357Z,98421.38
2023-12-19T15:51:37.376Z,98413.59
2023-12-19T15:54:04.947Z,98411.00
2023-12-19T15:56:33.351Z,98407.41
2023-12-19T15:59:02.684Z,98407.50
2023-12-19T16:01:30.336Z,98398.72
2023-12-19T16:03:57.779Z,98400.53
2023-12-19T16:06:25.118Z,98396.31
2023-12-19T16:08:52.019Z,98388.50
2023-12-19T16:11:20.287Z,98393.69
2023-12-19T16:13:50.982Z,98388.50
2023-12-19T16:16:18.742Z,98374.66
2023-12-19T16:18:48.518Z,98380.72
2023-12-19T16:21:17.715Z,98379.03
2023-12-19T16:23:57.063Z,98371.16
2023-12-19T16:26:31.666Z,98382.59
2023-12-19T16:28:58.551Z,98375.66
2023-12-19T16:31:25.654Z,98380.88
2023-12-19T16:33:52.597Z,98373.09
2023-12-19T16:36:19.257Z,98373.91
2023-12-19T16:38:46.408Z,98377.34
2023-12-19T16:41:13.728Z,98374.84
2023-12-19T16:43:44.971Z,98370.47
2023-12-19T16:46:12.241Z,98365.25
2023-12-19T16:48:39.670Z,98362.66
2023-12-19T16:51:07.758Z,98361.00
2023-12-19T16:53:34.900Z,98344.47
2023-12-19T16:56:01.674Z,98346.34
2023-12-19T16:58:37.287Z,98343.75
2023-12-19T17:01:13.288Z,98349.81
2023-12-19T17:03:40.597Z,98340.34
2023-12-19T17:06:08.478Z,98337.75
2023-12-19T17:08:35.400Z,98335.09
2023-12-19T17:11:02.422Z,98330.75
2023-12-19T17:13:29.440Z,98333.47
2023-12-19T17:15:56.187Z,98329.19
2023-12-19T17:18:23.800Z,98325.69
2023-12-19T17:20:50.784Z,98321.47
2023-12-19T17:23:20.534Z,98316.25
2023-12-19T17:25:48.983Z,98319.75
2023-12-19T17:28:15.929Z,98319.78
2023-12-19T17:30:42.847Z,98325.06
2023-12-19T17:33:10.597Z,98323.34
2023-12-19T17:35:37.401Z,98312.09
2023-12-19T17:38:04.176Z,98302.56
2023-12-19T17:40:31.054Z,98299.16
2023-12-19T17:42:57.972Z,98305.22
2023-12-19T17:45:24.850Z,98294.81
2023-12-19T17:47:51.683Z,98283.53
2023-12-19T17:50:18.689Z,98290.50
2023-12-19T17:52:45.578Z,98287.06
2023-12-19T17:55:12.858Z,98295.81
2023-12-19T17:57:39.565Z,98293.19
2023-12-19T18:00:07.094Z,98288.84
2023-12-19T18:02:36.626Z,98279.31
2023-12-19T18:05:03.800Z,98282.84
2023-12-19T18:07:31.097Z,98275.84
2023-12-19T18:09:58.141Z,98256.78
2023-12-19T18:12:33.175Z,98254.16
2023-12-19T18:15:00.371Z,98249.00
2023-12-19T18:17:27.611Z,98241.16
2023-12-19T18:19:56.497Z,98228.16
2023-12-19T18:22:23.340Z,98236.88
2023-12-19T18:24:50.449Z,98231.69
2023-12-19T18:27:17.064Z,98223.78
2023-12-19T18:29:43.815Z,98228.22
2023-12-19T18:32:10.608Z,98221.28
2023-12-19T18:34:37.505Z,98217.78
2023-12-19T18:37:04.810Z,98207.28
2023-12-19T18:39:31.867Z,98214.25
2023-12-19T18:41:58.651Z,98208.22
2023-12-19T18:44:25.625Z,98208.16
2023-12-19T18:46:53.406Z,98203.84
2023-12-19T18:49:20.868Z,98198.66
2023-12-19T18:51:47.830Z,98195.19
2023-12-19T18:54:14.850Z,98194.31
2023-12-19T18:56:42.156Z,98201.25
2023-12-19T18:59:09.460Z,98194.28
2023-12-19T19:01:36.888Z,98196.88
2023-12-19T19:04:04.120Z,98197.75
2023-12-19T19:06:33.584Z,98192.53
2023-12-19T19:09:00.881Z,98186.44
2023-12-19T19:11:28.549Z,98182.16
2023-12-19T19:13:55.623Z,98175.19
2023-12-19T19:16:22.742Z,98175.16
2023-12-19T19:18:51.409Z,98162.19
2023-12-19T19:21:18.974Z,98156.97
2023-12-19T19:23:47.815Z,98160.47
2023-12-19T19:26:14.914Z,98167.41
2023-12-19T19:28:41.809Z,98163.97
2023-12-19T19:31:08.927Z,98160.47
2023-12-19T19:33:37.013Z,98169.16
2023-12-19T19:36:06.029Z,98158.63
2023-12-19T19:38:33.553Z,98163.88
2023-12-19T19:41:02.149Z,98168.25
2023-12-19T19:43:29.425Z,98162.13
2023-12-19T19:45:57.918Z,98180.34
2023-12-19T19:48:24.989Z,98177.81
2023-12-19T19:50:53.011Z,98177.00
2023-12-19T19:53:20.138Z,98165.75
2023-12-19T19:55:46.959Z,98169.16
2023-12-19T19:58:14.217Z,98178.75
2023-12-19T20:00:41.212Z,98172.75
2023-12-19T20:03:08.563Z,98175.34
2023-12-19T20:05:35.526Z,98174.41
2023-12-19T20:08:02.876Z,98159.69
2023-12-19T20:10:29.839Z,98175.38
2023-12-19T20:12:57.619Z,98170.19
2023-12-19T20:15:27.458Z,98176.28
2023-12-19T20:17:54.293Z,98170.13
2023-12-19T20:20:21.343Z,98174.56
2023-12-19T20:22:50.686Z,98177.16
2023-12-19T20:25:20.203Z,98172.84
2023-12-19T20:27:49.620Z,98166.78
2023-12-19T20:30:19.270Z,98171.13
2023-12-19T20:32:47.256Z,98162.44
2023-12-19T20:35:14.968Z,98183.31
2023-12-19T20:37:42.437Z,98180.69
2023-12-19T20:40:12.033Z,98189.41
2023-12-19T20:42:39.814Z,98192.91
2023-12-19T20:45:07.788Z,98198.97
2023-12-19T20:47:34.921Z,98194.63
2023-12-19T20:50:02.793Z,98194.66
2023-12-19T20:52:30.810Z,98200.72
2023-12-19T20:55:00.846Z,98200.75
2023-12-19T20:57:28.485Z,98195.53
2023-12-19T20:59:56.761Z,98190.34
2023-12-19T21:02:24.416Z,98185.19
2023-12-19T21:04:52.234Z,98184.28
2023-12-19T21:07:21.382Z,98180.81
2023-12-19T21:09:48.260Z,98186.91
2023-12-19T21:12:15.279Z,98182.56
2023-12-19T21:14:42.541Z,98183.47
2023-12-19T21:17:10.443Z,98167.84
2023-12-19T21:19:37.919Z,98168.72
2023-12-19T21:22:06.366Z,98177.41
2023-12-19T21:24:34.070Z,98176.53
2023-12-19T21:27:00.835Z,98167.91
2023-12-19T21:29:27.591Z,98179.16
2023-12-19T21:31:54.327Z,98171.31
2023-12-19T21:34:21.062Z,98180.00
2023-12-19T21:36:49.551Z,98167.91
2023-12-19T21:39:16.663Z,98174.84
2023-12-19T21:41:46.627Z,98177.41
2023-12-19T21:44:13.851Z,98171.34
2023-12-19T21:46:40.699Z,98177.41
2023-12-19T21:49:08.228Z,98173.91
2023-12-19T21:51:38.376Z,98177.41
2023-12-19T21:54:09.759Z,98167.88
2023-12-19T21:56:40.253Z,98173.09
2023-12-19T21:59:07.971Z,98168.72
2023-12-19T22:01:35.410Z,98170.44
2023-12-19T22:04:02.440Z,98173.06
2023-12-19T22:06:29.415Z,98160.91
2023-12-19T22:08:57.172Z,98161.78
2023-12-19T22:11:24.339Z,98166.09
2023-12-19T22:13:50.917Z,98164.41
2023-12-19T22:16:21.145Z,98164.41
2023-12-19T22:18:48.418Z,98162.66
2023-12-19T22:21:24.717Z,98164.38
2023-12-19T22:23:52.676Z,98153.09
2023-12-19T22:26:20.123Z,98155.72
2023-12-19T22:28:47.371Z,98153.09
2023-12-19T22:31:15.456Z,98154.00
2023-12-19T22:33:42.302Z,98158.34
2023-12-19T22:36:09.805Z,98150.47
2023-12-19T22:38:37.113Z,98150.47
2023-12-19T22:41:04.458Z,98153.97
2023-12-19T22:43:31.088Z,98144.41
2023-12-19T22:45:57.947Z,98149.56
2023-12-19T22:48:24.548Z,98152.22
2023-12-19T22:50:51.624Z,98146.09
2023-12-19T22:53:18.298Z,98140.06
2023-12-19T22:55:47.671Z,98139.16
2023-12-19T22:58:16.182Z,98131.34
2023-12-19T23:00:43.629Z,98122.66
2023-12-19T23:03:12.360Z,98117.50
2023-12-19T23:05:39.083Z,98113.16
2023-12-19T23:08:06.119Z,98127.88
2023-12-19T23:10:37.534Z,98117.50
2023-12-19T23:13:06.026Z,98113.19
2023-12-19T23:15:34.838Z,98110.59
2023-12-19T23:18:03.067Z,98112.28
2023-12-19T23:20:33.664Z,98108.88
2023-12-19T23:23:01.282Z,98115.81
2023-12-19T23:25:28.090Z,98111.44
2023-12-19T23:27:55.458Z,98123.59
2023-12-19T23:30:22.537Z,98120.09
2023-12-19T23:32:49.590Z,98121.88
2023-12-19T23:35:16.287Z,98114.94
2023-12-19T23:37:43.356Z,98113.22
2023-12-19T23:40:11.288Z,98106.25
2023-12-19T23:42:37.967Z,98101.06
2023-12-19T23:45:05.238Z,98108.84
2023-12-19T23:47:31.932Z,98108.03
2023-12-19T23:49:58.721Z,98113.25
2023-12-19T23:52:25.421Z,98101.06
2023-12-19T23:57:44.139Z,98103.66
